createdAt,value
2023-04-18T00:00:07.007Z,4.80
2023-04-18T00:00:39.568Z,5.60
2023-04-18T00:01:12.029Z,5.60
2023-04-18T00:01:44.644Z,4.80
2023-04-18T00:02:17.074Z,4.80
2023-04-18T00:02:49.640Z,4.00
2023-04-18T00:03:22.160Z,6.40
2023-04-18T00:03:54.534Z,3.20
2023-04-18T00:04:27.187Z,4.00
2023-04-18T00:04:59.597Z,6.40
2023-04-18T00:05:31.999Z,2.40
2023-04-18T00:06:04.629Z,4.80
2023-04-18T00:06:37.141Z,4.00
2023-04-18T00:07:09.823Z,2.40
2023-04-18T00:07:42.345Z,7.20
2023-04-18T00:08:14.919Z,4.80
2023-04-18T00:08:47.386Z,4.80
2023-04-18T00:09:19.897Z,3.20
2023-04-18T00:09:52.347Z,5.60
2023-04-18T00:10:24.816Z,3.20
2023-04-18T00:10:57.370Z,2.40
2023-04-18T00:11:29.843Z,4.80
2023-04-18T00:12:02.380Z,3.20
2023-04-18T00:12:34.892Z,3.20
2023-04-18T00:13:07.507Z,4.00
2023-04-18T00:13:40.019Z,2.40
2023-04-18T00:14:12.739Z,2.40
2023-04-18T00:14:45.168Z,1.60
2023-04-18T00:15:17.688Z,2.40
2023-04-18T00:15:50.182Z,4.00
2023-04-18T00:16:22.705Z,2.40
2023-04-18T00:16:55.236Z,2.40
2023-04-18T00:17:27.678Z,1.60
2023-04-18T00:18:00.205Z,3.20
2023-04-18T00:18:52.060Z,2.40
2023-04-18T00:19:24.560Z,1.60
2023-04-18T00:19:57.056Z,4.00
2023-04-18T00:20:29.546Z,2.40
2023-04-18T00:21:02.041Z,2.40
2023-04-18T00:21:34.500Z,4.00
2023-04-18T00:22:06.996Z,4.80
2023-04-18T00:22:39.570Z,1.60
2023-04-18T00:23:13.439Z,1.60
2023-04-18T00:23:44.581Z,2.40
2023-04-18T00:24:17.058Z,3.20
2023-04-18T00:24:49.522Z,2.40
2023-04-18T00:25:22.006Z,2.40
2023-04-18T00:25:54.456Z,2.40
2023-04-18T00:26:26.942Z,4.00
2023-04-18T00:26:59.474Z,1.60
2023-04-18T00:27:32.095Z,2.40
2023-04-18T00:28:04.610Z,1.60
2023-04-18T00:28:37.148Z,3.20
2023-04-18T00:29:09.672Z,2.40
2023-04-18T00:29:42.181Z,2.40
2023-04-18T00:30:14.752Z,2.40
2023-04-18T00:30:47.247Z,2.40
2023-04-18T00:31:19.825Z,6.41
2023-04-18T00:31:52.219Z,1.60
2023-04-18T00:32:24.797Z,1.60
2023-04-18T00:32:57.264Z,3.20
2023-04-18T00:33:29.689Z,2.40
2023-04-18T00:34:02.166Z,4.00
2023-04-18T00:34:34.635Z,2.40
2023-04-18T00:35:07.061Z,3.20
2023-04-18T00:35:39.541Z,2.40
2023-04-18T00:36:11.998Z,2.40
2023-04-18T00:36:44.462Z,1.60
2023-04-18T00:37:16.937Z,0.80
2023-04-18T00:37:49.510Z,0.80
2023-04-18T00:38:22.031Z,1.60
2023-04-18T00:38:54.516Z,1.60
2023-04-18T00:39:26.996Z,1.60
2023-04-18T00:39:59.471Z,0.80
2023-04-18T00:40:31.957Z,4.00
2023-04-18T00:41:04.491Z,1.60
2023-04-18T00:41:36.945Z,1.60
2023-04-18T00:42:09.404Z,1.60
2023-04-18T00:42:41.975Z,2.40
2023-04-18T00:43:14.378Z,2.40
2023-04-18T00:43:46.902Z,1.60
2023-04-18T00:44:19.390Z,4.00
2023-04-18T00:44:51.934Z,1.60
2023-04-18T00:45:24.425Z,2.40
2023-04-18T00:45:56.921Z,1.60
2023-04-18T00:46:29.397Z,0.80
2023-04-18T00:47:01.795Z,4.80
2023-04-18T00:47:34.293Z,2.40
2023-04-18T00:48:06.835Z,4.00
2023-04-18T00:48:39.329Z,1.60
2023-04-18T00:49:11.772Z,2.40
2023-04-18T00:49:44.296Z,1.60
2023-04-18T00:50:16.777Z,2.40
2023-04-18T00:50:49.331Z,2.40
2023-04-18T00:51:21.882Z,2.40
2023-04-18T00:51:54.419Z,1.60
2023-04-18T00:52:26.925Z,1.60
2023-04-18T00:52:59.456Z,0.80
2023-04-18T00:53:31.977Z,1.60
2023-04-18T00:54:04.505Z,2.40
2023-04-18T00:54:37.053Z,1.60
2023-04-18T00:55:09.516Z,2.40
2023-04-18T00:55:41.995Z,1.60
2023-04-18T00:56:14.450Z,3.20
2023-04-18T00:56:46.910Z,3.20
2023-04-18T00:57:19.403Z,2.40
2023-04-18T00:57:51.886Z,1.60
2023-04-18T00:58:24.430Z,2.40
2023-04-18T00:58:56.979Z,2.40
2023-04-18T00:59:29.525Z,1.60
2023-04-18T01:00:02.020Z,4.00
2023-04-18T01:00:34.552Z,2.40
2023-04-18T01:01:07.053Z,4.80
2023-04-18T01:01:39.562Z,7.20
2023-04-18T01:02:12.034Z,4.00
2023-04-18T01:02:44.643Z,4.80
2023-04-18T01:03:17.132Z,0.80
2023-04-18T01:03:49.603Z,1.60
2023-04-18T01:04:22.102Z,4.00
2023-04-18T01:04:54.533Z,2.40
2023-04-18T01:05:27.038Z,3.20
2023-04-18T01:05:59.622Z,3.20
2023-04-18T01:06:32.140Z,0.80
2023-04-18T01:07:04.697Z,4.00
2023-04-18T01:07:37.194Z,2.40
2023-04-18T01:08:09.705Z,4.80
2023-04-18T01:08:42.178Z,4.00
2023-04-18T01:09:14.664Z,3.20
2023-04-18T01:09:47.120Z,3.20
2023-04-18T01:10:19.620Z,1.60
2023-04-18T01:10:52.109Z,3.20
2023-04-18T01:11:24.631Z,1.60
2023-04-18T01:11:57.132Z,3.20
2023-04-18T01:12:29.650Z,3.20
2023-04-18T01:13:02.155Z,2.40
2023-04-18T01:13:34.663Z,4.00
2023-04-18T01:14:07.161Z,4.80
2023-04-18T01:14:39.643Z,3.20
2023-04-18T01:15:12.121Z,3.20
2023-04-18T01:15:44.627Z,3.20
2023-04-18T01:16:17.078Z,4.00
2023-04-18T01:16:49.547Z,0.80
2023-04-18T01:17:22.038Z,1.60
2023-04-18T01:17:54.515Z,4.80
2023-04-18T01:18:26.976Z,2.40
2023-04-18T01:18:59.473Z,4.00
2023-04-18T01:19:32.052Z,2.40
2023-04-18T01:20:04.625Z,1.60
2023-04-18T01:20:37.114Z,1.60
2023-04-18T01:21:09.632Z,1.60
2023-04-18T01:21:42.147Z,0.80
2023-04-18T01:22:14.692Z,1.60
2023-04-18T01:22:47.253Z,2.40
2023-04-18T01:23:19.765Z,4.00
2023-04-18T01:23:52.275Z,1.60
2023-04-18T01:24:24.840Z,1.60
2023-04-18T01:24:57.416Z,3.20
2023-04-18T01:25:29.936Z,2.40
2023-04-18T01:26:02.445Z,3.20
2023-04-18T01:26:34.923Z,4.00
2023-04-18T01:27:07.414Z,2.40
2023-04-18T01:27:39.980Z,2.40
2023-04-18T01:28:12.504Z,2.40
2023-04-18T01:28:45.068Z,1.60
2023-04-18T01:29:17.579Z,1.60
2023-04-18T01:29:50.031Z,1.60
2023-04-18T01:30:22.599Z,4.00
2023-04-18T01:30:55.158Z,1.60
2023-04-18T01:31:27.665Z,0.80
2023-04-18T01:32:00.116Z,1.60
2023-04-18T01:32:32.686Z,3.20
2023-04-18T01:33:05.254Z,2.40
2023-04-18T01:33:37.734Z,1.60
2023-04-18T01:34:10.251Z,1.60
2023-04-18T01:34:42.785Z,3.20
2023-04-18T01:35:15.327Z,2.40
2023-04-18T01:35:47.845Z,0.80
2023-04-18T01:36:20.301Z,2.40
2023-04-18T01:36:52.782Z,0.80
2023-04-18T01:37:25.289Z,0.00
2023-04-18T01:37:57.801Z,0.00
2023-04-18T01:38:30.310Z,0.00
2023-04-18T01:39:02.790Z,0.80
2023-04-18T01:39:35.313Z,0.00
2023-04-18T01:40:07.789Z,0.80
2023-04-18T01:40:40.326Z,0.80
2023-04-18T01:41:12.811Z,0.00
2023-04-18T01:41:45.332Z,3.20
2023-04-18T01:42:17.780Z,2.40
2023-04-18T01:42:50.321Z,0.00
2023-04-18T01:43:22.816Z,1.60
2023-04-18T01:43:55.365Z,2.40
2023-04-18T01:44:27.908Z,0.80
2023-04-18T01:45:00.391Z,0.80
2023-04-18T01:45:32.860Z,3.20
2023-04-18T01:46:05.385Z,2.40
2023-04-18T01:46:38.182Z,2.40
2023-04-18T01:47:10.718Z,1.60
2023-04-18T01:47:43.241Z,2.40
2023-04-18T01:48:15.749Z,2.40
2023-04-18T01:48:48.301Z,2.40
2023-04-18T01:49:20.804Z,2.40
2023-04-18T01:49:53.314Z,0.80
2023-04-18T01:50:25.850Z,0.80
2023-04-18T01:50:58.348Z,0.00
2023-04-18T01:51:30.885Z,2.40
2023-04-18T01:52:03.343Z,2.40
2023-04-18T01:52:35.842Z,0.00
2023-04-18T01:53:08.310Z,2.40
2023-04-18T01:53:40.819Z,0.80
2023-04-18T01:54:13.673Z,2.40
2023-04-18T01:54:45.840Z,2.40
2023-04-18T01:55:18.374Z,3.20
2023-04-18T01:55:50.834Z,1.60
2023-04-18T01:56:23.297Z,1.60
2023-04-18T01:56:55.792Z,1.60
2023-04-18T01:57:28.295Z,1.60
2023-04-18T01:58:00.811Z,2.40
2023-04-18T01:58:33.278Z,1.60
2023-04-18T01:59:05.746Z,2.40
2023-04-18T01:59:38.260Z,2.40
2023-04-18T02:00:10.786Z,1.60
2023-04-18T02:00:43.299Z,2.40
2023-04-18T02:01:15.844Z,2.40
2023-04-18T02:01:48.334Z,1.60
2023-04-18T02:02:20.910Z,0.80
2023-04-18T02:02:53.558Z,2.40
2023-04-18T02:03:26.070Z,1.60
2023-04-18T02:03:58.482Z,0.00
2023-04-18T02:04:30.888Z,0.00
2023-04-18T02:05:03.337Z,0.80
2023-04-18T02:05:35.826Z,3.20
2023-04-18T02:06:08.348Z,5.60
2023-04-18T02:06:40.859Z,2.40
2023-04-18T02:07:13.363Z,2.40
2023-04-18T02:07:45.893Z,3.20
2023-04-18T02:08:18.422Z,4.00
2023-04-18T02:08:50.917Z,3.20
2023-04-18T02:09:23.390Z,2.40
2023-04-18T02:09:55.872Z,4.00
2023-04-18T02:10:28.369Z,2.40
2023-04-18T02:11:00.890Z,4.00
2023-04-18T02:11:33.414Z,4.00
2023-04-18T02:12:05.940Z,0.80
2023-04-18T02:12:38.514Z,0.80
2023-04-18T02:13:11.050Z,1.60
2023-04-18T02:13:43.540Z,2.40
2023-04-18T02:14:16.231Z,0.80
2023-04-18T02:14:48.584Z,2.40
2023-04-18T02:15:21.079Z,1.60
2023-04-18T02:15:53.602Z,3.20
2023-04-18T02:16:26.285Z,3.20
2023-04-18T02:16:58.695Z,3.20
2023-04-18T02:17:31.127Z,2.40
2023-04-18T02:18:03.668Z,4.00
2023-04-18T02:18:36.068Z,4.00
2023-04-18T02:19:08.555Z,4.00
2023-04-18T02:19:41.012Z,2.40
2023-04-18T02:20:13.495Z,2.40
2023-04-18T02:20:46.020Z,1.60
2023-04-18T02:21:18.526Z,3.20
2023-04-18T02:21:51.034Z,2.40
2023-04-18T02:22:23.527Z,3.20
2023-04-18T02:22:56.025Z,1.60
2023-04-18T02:23:28.540Z,3.20
2023-04-18T02:24:01.023Z,3.20
2023-04-18T02:24:33.491Z,2.40
2023-04-18T02:25:05.983Z,4.00
2023-04-18T02:25:38.466Z,4.80
2023-04-18T02:26:10.926Z,2.40
2023-04-18T02:26:43.390Z,2.40
2023-04-18T02:27:15.861Z,3.20
2023-04-18T02:27:48.405Z,1.60
2023-04-18T02:28:20.886Z,0.80
2023-04-18T02:28:53.334Z,1.60
2023-04-18T02:29:25.865Z,1.60
2023-04-18T02:29:58.340Z,2.40
2023-04-18T02:30:30.904Z,2.40
2023-04-18T02:31:03.363Z,2.40
2023-04-18T02:31:35.868Z,1.60
2023-04-18T02:32:08.443Z,3.20
2023-04-18T02:32:40.861Z,2.40
2023-04-18T02:33:13.354Z,2.40
2023-04-18T02:33:45.830Z,3.20
2023-04-18T02:34:18.340Z,2.40
2023-04-18T02:34:50.837Z,1.60
2023-04-18T02:35:23.358Z,3.20
2023-04-18T02:35:55.801Z,1.60
2023-04-18T02:36:28.285Z,3.20
2023-04-18T02:37:00.749Z,3.20
2023-04-18T02:37:33.210Z,1.60
2023-04-18T02:38:05.728Z,2.40
2023-04-18T02:38:38.198Z,2.40
2023-04-18T02:39:10.698Z,4.80
2023-04-18T02:39:43.162Z,2.40
2023-04-18T02:40:15.623Z,1.60
2023-04-18T02:40:48.148Z,4.80
2023-04-18T02:41:20.681Z,2.40
2023-04-18T02:41:53.344Z,2.40
2023-04-18T02:42:25.970Z,2.40
2023-04-18T02:42:58.514Z,7.20
2023-04-18T02:43:31.009Z,6.40
2023-04-18T02:44:03.493Z,1.60
2023-04-18T02:44:36.206Z,2.40
2023-04-18T02:45:08.761Z,4.80
2023-04-18T02:45:41.329Z,2.40
2023-04-18T02:46:13.816Z,1.60
2023-04-18T02:46:46.317Z,1.60
2023-04-18T02:47:18.843Z,2.40
2023-04-18T02:47:55.124Z,2.40
2023-04-18T02:48:23.932Z,1.60
2023-04-18T02:48:56.399Z,2.40
2023-04-18T02:49:28.958Z,3.20
2023-04-18T02:50:01.545Z,2.40
2023-04-18T02:50:34.028Z,3.20
2023-04-18T02:51:06.495Z,5.60
2023-04-18T02:51:38.988Z,4.00
2023-04-18T02:52:11.472Z,4.80
2023-04-18T02:52:43.976Z,6.40
2023-04-18T02:53:16.496Z,4.00
2023-04-18T02:53:49.009Z,0.80
2023-04-18T02:54:21.466Z,3.20
2023-04-18T02:54:54.007Z,4.00
2023-04-18T02:55:26.544Z,4.00
2023-04-18T02:55:59.081Z,5.60
2023-04-18T02:56:31.599Z,4.80
2023-04-18T02:57:04.112Z,4.00
2023-04-18T02:57:36.633Z,4.00
2023-04-18T02:58:09.152Z,2.40
2023-04-18T02:58:41.658Z,4.00
2023-04-18T02:59:14.117Z,4.80
2023-04-18T02:59:46.618Z,2.40
2023-04-18T03:00:19.172Z,2.40
2023-04-18T03:00:51.670Z,0.80
2023-04-18T03:01:24.264Z,0.80
2023-04-18T03:02:16.202Z,1.60
2023-04-18T03:02:48.742Z,1.60
2023-04-18T03:03:21.243Z,1.60
2023-04-18T03:04:13.359Z,4.00
2023-04-18T03:04:45.522Z,2.40
2023-04-18T03:05:18.011Z,2.40
2023-04-18T03:05:50.471Z,4.80
2023-04-18T03:06:23.007Z,2.40
2023-04-18T03:06:55.506Z,3.20
2023-04-18T03:07:27.998Z,4.00
2023-04-18T03:08:00.526Z,3.20
2023-04-18T03:08:32.998Z,8.00
2023-04-18T03:09:05.533Z,4.00
2023-04-18T03:09:38.046Z,7.20
2023-04-18T03:10:10.550Z,4.00
2023-04-18T03:10:43.078Z,3.20
2023-04-18T03:11:15.586Z,4.80
2023-04-18T03:11:48.114Z,4.80
2023-04-18T03:12:20.642Z,2.40
2023-04-18T03:12:53.101Z,7.20
2023-04-18T03:13:25.641Z,2.40
2023-04-18T03:13:58.155Z,3.20
2023-04-18T03:14:30.688Z,2.40
2023-04-18T03:15:03.201Z,4.00
2023-04-18T03:15:35.813Z,8.80
2023-04-18T03:16:08.417Z,4.80
2023-04-18T03:16:40.821Z,7.21
2023-04-18T03:17:13.295Z,3.20
2023-04-18T03:17:45.848Z,4.80
2023-04-18T03:18:18.343Z,5.60
2023-04-18T03:18:50.860Z,5.60
2023-04-18T03:19:23.356Z,6.40
2023-04-18T03:19:55.880Z,6.40
2023-04-18T03:20:28.382Z,5.60
2023-04-18T03:21:00.847Z,2.40
2023-04-18T03:21:33.396Z,0.80
2023-04-18T03:22:05.925Z,0.80
2023-04-18T03:22:38.441Z,4.80
2023-04-18T03:23:10.986Z,4.80
2023-04-18T03:23:43.505Z,4.80
2023-04-18T03:24:16.247Z,4.00
2023-04-18T03:24:48.539Z,3.20
2023-04-18T03:25:21.038Z,5.60
2023-04-18T03:25:53.553Z,4.00
2023-04-18T03:26:26.117Z,3.20
2023-04-18T03:26:58.638Z,0.80
2023-04-18T03:27:31.143Z,1.60
2023-04-18T03:28:03.614Z,3.20
2023-04-18T03:28:36.176Z,5.60
2023-04-18T03:29:08.602Z,4.00
2023-04-18T03:29:41.112Z,7.20
2023-04-18T03:30:13.594Z,7.20
2023-04-18T03:30:46.124Z,3.20
2023-04-18T03:31:18.657Z,7.20
2023-04-18T03:31:51.146Z,4.80
2023-04-18T03:32:23.659Z,3.20
2023-04-18T03:32:56.317Z,2.40
2023-04-18T03:33:28.739Z,3.20
2023-04-18T03:34:01.197Z,4.80
2023-04-18T03:34:33.738Z,5.60
2023-04-18T03:35:06.232Z,5.60
2023-04-18T03:35:38.791Z,2.40
2023-04-18T03:36:11.330Z,1.60
2023-04-18T03:36:45.331Z,6.40
2023-04-18T03:37:16.283Z,6.40
2023-04-18T03:37:48.834Z,4.80
2023-04-18T03:38:21.387Z,2.40
2023-04-18T03:38:53.859Z,2.40
2023-04-18T03:39:26.375Z,2.40
2023-04-18T03:39:58.865Z,5.60
2023-04-18T03:40:31.343Z,4.00
2023-04-18T03:41:03.887Z,3.20
2023-04-18T03:41:36.375Z,6.40
2023-04-18T03:42:08.910Z,5.60
2023-04-18T03:42:41.407Z,7.20
2023-04-18T03:43:13.900Z,5.60
2023-04-18T03:43:46.458Z,4.00
2023-04-18T03:44:18.970Z,6.40
2023-04-18T03:44:51.479Z,3.20
2023-04-18T03:45:23.977Z,6.40
2023-04-18T03:45:56.533Z,3.20
2023-04-18T03:46:29.030Z,8.80
2023-04-18T03:47:01.503Z,5.60
2023-04-18T03:47:34.027Z,7.20
2023-04-18T03:48:06.507Z,4.00
2023-04-18T03:48:38.983Z,4.80
2023-04-18T03:49:11.492Z,5.60
2023-04-18T03:49:44.001Z,7.20
2023-04-18T03:50:16.469Z,4.00
2023-04-18T03:50:48.930Z,2.40
2023-04-18T03:51:21.439Z,5.60
2023-04-18T03:51:54.044Z,4.00
2023-04-18T03:52:27.975Z,6.40
2023-04-18T03:52:59.005Z,4.80
2023-04-18T03:53:31.466Z,4.80
2023-04-18T03:54:03.934Z,7.20
2023-04-18T03:54:36.403Z,5.60
2023-04-18T03:55:08.906Z,8.80
2023-04-18T03:55:41.438Z,9.60
2023-04-18T03:56:13.965Z,6.40
2023-04-18T03:56:46.488Z,3.20
2023-04-18T03:57:19.016Z,6.40
2023-04-18T03:57:51.555Z,11.21
2023-04-18T03:58:24.048Z,4.80
2023-04-18T03:58:56.532Z,2.40
2023-04-18T03:59:29.001Z,2.40
2023-04-18T04:00:01.509Z,7.20
2023-04-18T04:00:34.045Z,5.60
2023-04-18T04:01:13.563Z,3.20
2023-04-18T04:01:46.108Z,4.80
2023-04-18T04:02:18.683Z,3.20
2023-04-18T04:02:51.305Z,3.20
2023-04-18T04:03:23.546Z,8.00
2023-04-18T04:03:56.140Z,6.40
2023-04-18T04:04:28.468Z,4.80
2023-04-18T04:05:01.064Z,10.40
2023-04-18T04:05:33.488Z,8.00
2023-04-18T04:06:06.035Z,8.00
2023-04-18T04:06:38.557Z,4.00
2023-04-18T04:07:11.038Z,4.00
2023-04-18T04:07:43.547Z,8.00
2023-04-18T04:08:16.093Z,5.60
2023-04-18T04:08:48.526Z,2.40
2023-04-18T04:09:20.989Z,1.60
2023-04-18T04:09:53.496Z,2.40
2023-04-18T04:10:26.007Z,3.20
2023-04-18T04:10:58.521Z,6.40
2023-04-18T04:11:30.980Z,5.60
2023-04-18T04:12:03.492Z,0.80
2023-04-18T04:12:36.048Z,6.40
2023-04-18T04:13:08.546Z,8.00
2023-04-18T04:13:41.068Z,5.60
2023-04-18T04:14:13.827Z,5.60
2023-04-18T04:14:46.043Z,6.40
2023-04-18T04:15:18.625Z,5.60
2023-04-18T04:15:51.144Z,6.40
2023-04-18T04:16:23.652Z,12.01
2023-04-18T04:16:56.143Z,3.20
2023-04-18T04:17:28.680Z,4.00
2023-04-18T04:18:01.215Z,5.60
2023-04-18T04:18:33.655Z,3.20
2023-04-18T04:19:06.201Z,4.00
2023-04-18T04:19:38.740Z,7.20
2023-04-18T04:20:11.228Z,8.80
2023-04-18T04:20:43.805Z,6.40
2023-04-18T04:21:16.364Z,4.80
2023-04-18T04:21:48.865Z,8.00
2023-04-18T04:22:21.386Z,4.80
2023-04-18T04:22:53.925Z,3.20
2023-04-18T04:23:26.402Z,6.40
2023-04-18T04:23:58.867Z,6.40
2023-04-18T04:24:31.375Z,2.40
2023-04-18T04:25:03.866Z,7.20
2023-04-18T04:25:36.328Z,8.00
2023-04-18T04:26:08.898Z,6.40
2023-04-18T04:26:41.357Z,11.20
2023-04-18T04:27:13.884Z,4.80
2023-04-18T04:27:46.388Z,12.01
2023-04-18T04:28:18.912Z,4.00
2023-04-18T04:28:51.431Z,3.20
2023-04-18T04:29:23.925Z,4.80
2023-04-18T04:29:56.417Z,3.20
2023-04-18T04:30:28.821Z,2.40
2023-04-18T04:31:01.283Z,8.00
2023-04-18T04:31:33.784Z,8.00
2023-04-18T04:32:06.384Z,9.60
2023-04-18T04:32:38.879Z,7.20
2023-04-18T04:33:11.264Z,4.00
2023-04-18T04:33:43.718Z,3.20
2023-04-18T04:34:16.385Z,5.60
2023-04-18T04:34:48.797Z,2.40
2023-04-18T04:35:21.304Z,4.80
2023-04-18T04:35:53.823Z,2.40
2023-04-18T04:36:26.292Z,3.20
2023-04-18T04:36:58.808Z,2.40
2023-04-18T04:37:31.312Z,12.01
2023-04-18T04:38:03.885Z,6.40
2023-04-18T04:38:36.443Z,6.40
2023-04-18T04:39:08.961Z,3.20
2023-04-18T04:39:41.504Z,4.00
2023-04-18T04:40:13.969Z,4.00
2023-04-18T04:40:46.486Z,8.81
2023-04-18T04:41:18.999Z,5.60
2023-04-18T04:41:51.498Z,4.80
2023-04-18T04:42:23.957Z,5.60
2023-04-18T04:42:56.436Z,8.80
2023-04-18T04:43:28.953Z,4.80
2023-04-18T04:44:01.490Z,8.80
2023-04-18T04:44:33.915Z,6.40
2023-04-18T04:45:06.468Z,5.60
2023-04-18T04:45:39.024Z,8.00
2023-04-18T04:46:11.486Z,8.00
2023-04-18T04:46:43.977Z,9.60
2023-04-18T04:47:16.475Z,7.20
2023-04-18T04:47:49.003Z,8.00
2023-04-18T04:48:21.505Z,9.60
2023-04-18T04:48:53.972Z,4.80
2023-04-18T04:49:26.429Z,7.20
2023-04-18T04:49:58.921Z,6.40
2023-04-18T04:50:31.485Z,4.00
2023-04-18T04:51:03.950Z,5.60
2023-04-18T04:51:36.407Z,3.20
2023-04-18T04:52:09.003Z,6.40
2023-04-18T04:52:41.495Z,7.20
2023-04-18T04:53:13.980Z,10.40
2023-04-18T04:53:46.573Z,8.00
2023-04-18T04:54:19.016Z,18.41
2023-04-18T04:54:51.480Z,6.40
2023-04-18T04:55:23.935Z,4.80
2023-04-18T04:55:56.435Z,7.20
2023-04-18T04:56:28.952Z,4.00
2023-04-18T04:57:01.442Z,5.60
2023-04-18T04:57:33.919Z,4.80
2023-04-18T04:58:06.370Z,4.80
2023-04-18T04:58:38.865Z,5.60
2023-04-18T04:59:11.341Z,10.40
2023-04-18T04:59:43.838Z,4.00
2023-04-18T05:00:16.295Z,8.80
2023-04-18T05:00:48.834Z,4.00
2023-04-18T05:01:21.319Z,6.40
2023-04-18T05:01:53.875Z,13.61
2023-04-18T05:02:26.465Z,8.80
2023-04-18T05:02:58.936Z,4.00
2023-04-18T05:03:31.460Z,3.20
2023-04-18T05:04:03.893Z,8.00
2023-04-18T05:04:36.383Z,9.60
2023-04-18T05:05:08.782Z,9.60
2023-04-18T05:05:41.272Z,5.60
2023-04-18T05:06:13.745Z,4.00
2023-04-18T05:06:46.232Z,4.80
2023-04-18T05:07:18.739Z,4.00
2023-04-18T05:07:51.331Z,5.60
2023-04-18T05:08:23.816Z,8.80
2023-04-18T05:08:56.303Z,9.60
2023-04-18T05:09:28.751Z,7.20
2023-04-18T05:10:01.292Z,7.20
2023-04-18T05:10:33.812Z,8.80
2023-04-18T05:11:06.388Z,7.20
2023-04-18T05:11:38.932Z,7.20
2023-04-18T05:12:11.458Z,4.80
2023-04-18T05:12:43.935Z,4.80
2023-04-18T05:13:16.496Z,7.20
2023-04-18T05:13:48.958Z,4.80
2023-04-18T05:14:21.414Z,6.40
2023-04-18T05:14:53.876Z,4.00
2023-04-18T05:15:26.334Z,1.60
2023-04-18T05:15:58.790Z,4.00
2023-04-18T05:16:31.324Z,7.20
2023-04-18T05:17:03.789Z,4.80
2023-04-18T05:17:36.310Z,7.20
2023-04-18T05:18:08.815Z,3.20
2023-04-18T05:18:42.166Z,4.00
2023-04-18T05:19:14.654Z,3.20
2023-04-18T05:19:47.159Z,9.60
2023-04-18T05:20:19.669Z,6.40
2023-04-18T05:20:52.193Z,5.60
2023-04-18T05:21:24.714Z,6.40
2023-04-18T05:21:57.374Z,6.40
2023-04-18T05:22:29.881Z,4.80
2023-04-18T05:23:02.347Z,4.80
2023-04-18T05:23:34.858Z,4.00
2023-04-18T05:24:08.172Z,3.20
2023-04-18T05:24:40.677Z,3.20
2023-04-18T05:25:13.201Z,4.80
2023-04-18T05:25:45.723Z,4.00
2023-04-18T05:26:18.310Z,4.00
2023-04-18T05:26:50.779Z,4.00
2023-04-18T05:27:23.323Z,5.60
2023-04-18T05:27:55.924Z,8.00
2023-04-18T05:28:28.424Z,4.80
2023-04-18T05:29:00.932Z,4.80
2023-04-18T05:29:33.435Z,3.20
2023-04-18T05:30:05.948Z,8.80
2023-04-18T05:30:38.546Z,7.20
2023-04-18T05:31:10.998Z,6.40
2023-04-18T05:31:43.478Z,9.60
2023-04-18T05:32:15.978Z,8.80
2023-04-18T05:32:48.546Z,5.60
2023-04-18T05:33:21.000Z,8.00
2023-04-18T05:33:53.481Z,8.80
2023-04-18T05:34:26.005Z,4.00
2023-04-18T05:34:58.471Z,5.60
2023-04-18T05:35:30.947Z,4.00
2023-04-18T05:36:03.424Z,3.20
2023-04-18T05:36:35.935Z,4.80
2023-04-18T05:37:08.437Z,2.40
2023-04-18T05:37:40.965Z,8.00
2023-04-18T05:38:13.506Z,8.80
2023-04-18T05:38:46.023Z,6.40
2023-04-18T05:39:18.554Z,8.80
2023-04-18T05:39:51.087Z,9.61
2023-04-18T05:40:23.587Z,10.40
2023-04-18T05:40:56.099Z,9.60
2023-04-18T05:41:28.655Z,7.20
2023-04-18T05:42:01.158Z,8.00
2023-04-18T05:42:33.660Z,8.00
2023-04-18T05:43:06.212Z,12.01
2023-04-18T05:43:38.662Z,8.00
2023-04-18T05:44:11.168Z,12.01
2023-04-18T05:44:43.723Z,5.60
2023-04-18T05:45:16.225Z,7.20
2023-04-18T05:45:48.780Z,4.80
2023-04-18T05:46:21.333Z,8.80
2023-04-18T05:46:53.729Z,5.60
2023-04-18T05:47:26.243Z,3.20
2023-04-18T05:47:58.752Z,4.80
2023-04-18T05:48:31.219Z,4.80
2023-04-18T05:49:03.688Z,4.00
2023-04-18T05:49:36.163Z,8.00
2023-04-18T05:50:08.631Z,5.60
2023-04-18T05:50:41.177Z,12.01
2023-04-18T05:51:13.603Z,9.60
2023-04-18T05:51:46.094Z,8.00
2023-04-18T05:52:18.584Z,8.00
2023-04-18T05:52:51.149Z,9.60
2023-04-18T05:53:23.657Z,6.40
2023-04-18T05:53:56.207Z,5.60
2023-04-18T05:54:28.650Z,9.60
2023-04-18T05:55:01.148Z,11.21
2023-04-18T05:55:33.673Z,6.40
2023-04-18T05:56:06.242Z,8.00
2023-04-18T05:56:38.764Z,8.00
2023-04-18T05:57:11.268Z,8.80
2023-04-18T05:57:43.748Z,5.60
2023-04-18T05:58:16.210Z,5.60
2023-04-18T05:58:48.887Z,4.00
2023-04-18T05:59:21.352Z,5.60
2023-04-18T05:59:53.890Z,9.60
2023-04-18T06:00:26.392Z,3.20
2023-04-18T06:00:58.888Z,3.20
2023-04-18T06:01:31.410Z,5.60
2023-04-18T06:02:03.937Z,8.80
2023-04-18T06:02:36.555Z,9.60
2023-04-18T06:03:10.810Z,6.40
2023-04-18T06:03:41.786Z,11.21
2023-04-18T06:04:14.547Z,11.20
2023-04-18T06:04:46.586Z,10.40
2023-04-18T06:05:19.183Z,4.80
2023-04-18T06:05:51.572Z,8.80
2023-04-18T06:06:23.986Z,5.60
2023-04-18T06:06:56.504Z,9.60
2023-04-18T06:07:29.038Z,4.00
2023-04-18T06:08:01.561Z,6.40
2023-04-18T06:08:34.055Z,5.60
2023-04-18T06:09:06.534Z,4.80
2023-04-18T06:09:39.079Z,6.40
2023-04-18T06:10:11.578Z,4.00
2023-04-18T06:10:45.005Z,4.80
2023-04-18T06:11:17.464Z,5.60
2023-04-18T06:11:49.942Z,6.40
2023-04-18T06:12:22.411Z,4.00
2023-04-18T06:12:54.888Z,4.00
2023-04-18T06:13:27.383Z,8.80
2023-04-18T06:13:59.894Z,5.60
2023-04-18T06:14:32.394Z,4.80
2023-04-18T06:15:04.967Z,4.80
2023-04-18T06:15:37.456Z,5.60
2023-04-18T06:16:09.976Z,6.40
2023-04-18T06:16:42.464Z,5.60
2023-04-18T06:17:14.924Z,5.60
2023-04-18T06:17:47.588Z,14.41
2023-04-18T06:18:19.947Z,10.40
2023-04-18T06:18:52.462Z,8.00
2023-04-18T06:19:25.029Z,11.21
2023-04-18T06:19:57.508Z,9.60
2023-04-18T06:20:30.084Z,10.40
2023-04-18T06:21:02.543Z,12.01
2023-04-18T06:21:35.073Z,12.81
2023-04-18T06:22:07.561Z,5.60
2023-04-18T06:22:40.096Z,8.80
2023-04-18T06:23:12.580Z,9.60
2023-04-18T06:23:45.087Z,11.21
2023-04-18T06:24:17.573Z,11.21
2023-04-18T06:24:50.041Z,19.21
2023-04-18T06:25:22.566Z,13.61
2023-04-18T06:25:55.102Z,12.81
2023-04-18T06:26:27.620Z,7.20
2023-04-18T06:27:00.157Z,8.80
2023-04-18T06:27:32.584Z,9.60
2023-04-18T06:28:05.056Z,15.21
2023-04-18T06:28:37.549Z,13.61
2023-04-18T06:29:10.019Z,9.60
2023-04-18T06:29:42.483Z,7.20
2023-04-18T06:30:15.012Z,20.01
2023-04-18T06:30:47.568Z,8.00
2023-04-18T06:31:20.122Z,12.81
2023-04-18T06:31:52.684Z,13.61
2023-04-18T06:32:25.074Z,8.81
2023-04-18T06:32:57.627Z,10.40
2023-04-18T06:33:30.084Z,15.21
2023-04-18T06:34:02.579Z,20.01
2023-04-18T06:34:35.046Z,14.41
2023-04-18T06:35:07.523Z,12.01
2023-04-18T06:35:40.047Z,7.20
2023-04-18T06:36:12.516Z,12.01
2023-04-18T06:36:44.994Z,11.21
2023-04-18T06:37:17.484Z,9.60
2023-04-18T06:37:49.951Z,8.80
2023-04-18T06:38:22.489Z,14.41
2023-04-18T06:38:55.006Z,7.20
2023-04-18T06:39:27.504Z,12.81
2023-04-18T06:40:00.016Z,9.60
2023-04-18T06:40:32.494Z,14.41
2023-04-18T06:41:04.973Z,8.80
2023-04-18T06:41:37.452Z,8.80
2023-04-18T06:42:10.007Z,14.41
2023-04-18T06:42:42.537Z,10.40
2023-04-18T06:43:15.097Z,12.81
2023-04-18T06:44:02.043Z,8.80
2023-04-18T06:44:20.143Z,6.40
2023-04-18T06:44:52.659Z,7.21
2023-04-18T06:45:25.169Z,12.01
2023-04-18T06:45:57.710Z,7.20
2023-04-18T06:46:30.388Z,13.61
2023-04-18T06:47:02.714Z,13.61
2023-04-18T06:47:35.269Z,11.21
2023-04-18T06:48:07.816Z,15.20
2023-04-18T06:48:40.221Z,15.21
2023-04-18T06:49:12.730Z,13.61
2023-04-18T06:49:45.213Z,10.40
2023-04-18T06:50:17.696Z,15.21
2023-04-18T06:50:50.195Z,9.60
2023-04-18T06:51:22.671Z,9.60
2023-04-18T06:51:55.147Z,8.80
2023-04-18T06:52:27.605Z,12.01
2023-04-18T06:53:00.054Z,9.60
2023-04-18T06:53:32.547Z,9.60
2023-04-18T06:54:04.993Z,8.80
2023-04-18T06:54:37.512Z,8.00
2023-04-18T06:55:10.012Z,9.60
2023-04-18T06:55:42.566Z,5.60
2023-04-18T06:56:15.021Z,4.80
2023-04-18T06:56:47.513Z,8.80
2023-04-18T06:57:20.041Z,8.00
2023-04-18T06:57:52.550Z,10.40
2023-04-18T06:58:25.076Z,8.80
2023-04-18T06:58:57.563Z,5.60
2023-04-18T06:59:30.057Z,6.40
2023-04-18T07:00:02.553Z,12.01
2023-04-18T07:00:35.014Z,9.60
2023-04-18T07:01:07.565Z,8.00
2023-04-18T07:01:40.060Z,6.40
2023-04-18T07:02:12.508Z,3.20
2023-04-18T07:02:45.133Z,5.60
2023-04-18T07:03:17.592Z,5.60
2023-04-18T07:03:50.018Z,6.40
2023-04-18T07:04:22.570Z,8.00
2023-04-18T07:04:55.013Z,8.00
2023-04-18T07:05:27.499Z,4.80
2023-04-18T07:05:59.970Z,5.60
2023-04-18T07:06:32.459Z,3.20
2023-04-18T07:07:04.931Z,5.60
2023-04-18T07:07:37.470Z,8.80
2023-04-18T07:08:09.956Z,7.20
2023-04-18T07:08:42.501Z,12.01
2023-04-18T07:09:15.004Z,15.21
2023-04-18T07:09:47.456Z,8.00
2023-04-18T07:10:19.927Z,4.00
2023-04-18T07:10:52.430Z,8.00
2023-04-18T07:11:24.939Z,9.60
2023-04-18T07:11:57.426Z,12.01
2023-04-18T07:12:29.899Z,8.80